createdAt,value
2017-11-10T00:02:03.109Z,21.21
2017-11-10T00:04:28.898Z,21.23
2017-11-10T00:06:54.706Z,21.24
2017-11-10T00:09:20.541Z,21.20
2017-11-10T00:11:46.341Z,21.13
2017-11-10T00:14:12.178Z,21.20
2017-11-10T00:16:37.989Z,21.28
2017-11-10T00:19:04.933Z,21.22
2017-11-10T00:21:32.082Z,21.22
2017-11-10T00:23:57.869Z,21.29
2017-11-10T00:26:23.685Z,21.26
2017-11-10T00:28:49.462Z,21.23
2017-11-10T00:31:16.106Z,21.29
2017-11-10T00:33:41.946Z,21.31
2017-11-10T00:36:08.632Z,21.26
2017-11-10T00:38:34.410Z,21.22
2017-11-10T00:41:01.103Z,21.23
2017-11-10T00:43:26.916Z,21.27
2017-11-10T00:45:53.610Z,21.26
2017-11-10T00:48:20.333Z,21.26
2017-11-10T00:50:47.146Z,21.28
2017-11-10T00:53:14.004Z,21.25
2017-11-10T00:55:40.264Z,21.31
2017-11-10T00:58:06.077Z,21.31
2017-11-10T01:00:32.726Z,21.33
2017-11-10T01:02:58.502Z,21.30
2017-11-10T01:05:25.089Z,21.28
2017-11-10T01:07:50.914Z,21.28
2017-11-10T01:13:12.427Z,21.32
2017-11-10T01:15:38.221Z,21.27
2017-11-10T01:18:04.203Z,21.30
2017-11-10T01:20:29.994Z,21.31
2017-11-10T01:22:55.789Z,21.28
2017-11-10T01:25:21.587Z,21.27
2017-11-10T01:27:47.416Z,21.23
2017-11-10T01:30:13.269Z,21.27
2017-11-10T01:32:39.077Z,21.23
2017-11-10T01:35:06.003Z,21.30
2017-11-10T01:37:31.794Z,21.28
2017-11-10T01:39:57.677Z,21.33
2017-11-10T01:42:23.495Z,21.33
2017-11-10T01:44:49.303Z,21.30
2017-11-10T01:47:15.128Z,21.28
2017-11-10T01:49:42.868Z,21.22
2017-11-10T01:52:08.700Z,21.30
2017-11-10T01:54:34.493Z,21.31
2017-11-10T01:57:00.292Z,21.31
2017-11-10T01:59:26.079Z,21.36
2017-11-10T02:01:51.886Z,21.24
2017-11-10T02:04:17.680Z,21.26
2017-11-10T02:06:43.478Z,21.24
2017-11-10T02:09:09.304Z,21.25
2017-11-10T02:11:35.101Z,21.27
2017-11-10T02:14:00.888Z,21.21
2017-11-10T02:16:26.689Z,21.26
2017-11-10T02:18:52.482Z,21.23
2017-11-10T02:21:18.274Z,21.29
2017-11-10T02:23:44.059Z,21.26
2017-11-10T02:26:09.849Z,21.23
2017-11-10T02:28:35.656Z,21.23
2017-11-10T02:31:01.446Z,21.23
2017-11-10T02:33:27.236Z,21.23
2017-11-10T02:35:53.033Z,21.25
2017-11-10T02:38:18.859Z,21.26
2017-11-10T02:40:44.710Z,21.20
2017-11-10T02:43:10.520Z,21.27
2017-11-10T02:45:36.323Z,21.22
2017-11-10T02:48:02.110Z,21.23
2017-11-10T02:50:27.913Z,21.36
2017-11-10T02:52:53.832Z,21.26
2017-11-10T02:55:19.626Z,21.21
2017-11-10T02:57:45.414Z,21.25
2017-11-10T03:00:11.211Z,21.29
2017-11-10T03:02:37.005Z,21.31
2017-11-10T03:05:02.809Z,21.26
2017-11-10T03:07:28.699Z,21.23
2017-11-10T03:09:54.496Z,21.26
2017-11-10T03:12:20.353Z,21.31
2017-11-10T03:14:46.170Z,21.26
2017-11-10T03:17:11.961Z,21.25
2017-11-10T03:19:37.934Z,21.30
2017-11-10T03:22:03.761Z,21.24
2017-11-10T03:24:29.553Z,21.24
2017-11-10T03:26:55.383Z,21.22
2017-11-10T03:29:21.181Z,21.31
2017-11-10T03:31:47.006Z,21.29
2017-11-10T03:34:12.923Z,21.31
2017-11-10T03:36:38.730Z,21.22
2017-11-10T03:39:04.666Z,21.29
2017-11-10T03:41:30.465Z,21.23
2017-11-10T03:43:56.254Z,21.26
2017-11-10T03:46:22.065Z,21.22
2017-11-10T03:48:47.875Z,21.22
2017-11-10T03:51:13.662Z,21.23
2017-11-10T03:53:39.480Z,21.22
2017-11-10T03:56:05.276Z,21.27
2017-11-10T03:58:31.097Z,21.22
2017-11-10T04:00:56.890Z,21.20
2017-11-10T04:03:22.717Z,21.21
2017-11-10T04:05:48.564Z,21.24
2017-11-10T04:08:14.410Z,21.23
2017-11-10T04:10:40.223Z,21.20
2017-11-10T04:13:06.007Z,21.23
2017-11-10T04:15:31.849Z,21.27
2017-11-10T04:17:57.662Z,21.23
2017-11-10T04:20:23.462Z,21.28
2017-11-10T04:22:49.265Z,21.23
2017-11-10T04:25:15.075Z,21.26
2017-11-10T04:27:40.913Z,21.32
2017-11-10T04:30:06.709Z,21.25
2017-11-10T04:32:32.521Z,21.25
2017-11-10T04:34:58.321Z,21.30
2017-11-10T04:37:24.112Z,21.22
2017-11-10T04:39:49.901Z,21.26
2017-11-10T04:42:15.738Z,21.26
2017-11-10T04:44:41.529Z,21.23
2017-11-10T04:47:07.313Z,21.26
2017-11-10T04:49:33.142Z,21.22
2017-11-10T04:51:58.943Z,21.30
2017-11-10T04:54:24.737Z,21.23
2017-11-10T04:56:50.589Z,21.25
2017-11-10T04:59:16.381Z,21.24
2017-11-10T05:01:42.178Z,21.25
2017-11-10T05:04:08.001Z,21.25
2017-11-10T05:06:33.798Z,21.27
2017-11-10T05:08:59.589Z,21.26
2017-11-10T05:11:25.523Z,21.26
2017-11-10T05:13:52.111Z,21.29
2017-11-10T05:16:17.913Z,21.38
2017-11-10T05:18:43.753Z,21.33
2017-11-10T05:21:09.795Z,21.32
2017-11-10T05:23:36.271Z,21.38
2017-11-10T05:26:02.094Z,21.29
2017-11-10T05:28:27.893Z,21.30
2017-11-10T05:30:53.702Z,21.34
2017-11-10T05:33:19.520Z,21.32
2017-11-10T05:35:47.522Z,21.33
2017-11-10T05:38:13.354Z,21.35
2017-11-10T05:40:39.173Z,21.42
2017-11-10T05:43:04.977Z,21.44
2017-11-10T05:45:30.910Z,21.36
2017-11-10T05:47:56.706Z,21.33
2017-11-10T05:50:22.641Z,21.30
2017-11-10T05:52:48.440Z,21.31
2017-11-10T05:55:14.386Z,21.37
2017-11-10T05:57:40.211Z,21.36
2017-11-10T06:00:06.222Z,21.41
2017-11-10T06:02:32.062Z,21.33
2017-11-10T06:04:57.873Z,21.32
2017-11-10T06:07:23.693Z,21.40
2017-11-10T06:09:49.525Z,21.38
2017-11-10T06:12:15.314Z,21.36
2017-11-10T06:14:41.151Z,21.38
2017-11-10T06:17:06.953Z,21.40
2017-11-10T06:19:32.750Z,21.45
2017-11-10T06:21:58.591Z,21.48
2017-11-10T06:24:24.437Z,21.47
2017-11-10T06:26:50.642Z,21.39
2017-11-10T06:29:18.035Z,21.38
2017-11-10T06:31:43.868Z,21.43
2017-11-10T06:34:09.855Z,21.43
2017-11-10T06:36:35.653Z,21.42
2017-11-10T06:39:02.674Z,21.36
2017-11-10T06:41:28.489Z,21.44
2017-11-10T06:43:54.302Z,21.36
2017-11-10T06:46:20.102Z,21.36
2017-11-10T06:48:45.908Z,21.39
2017-11-10T06:51:11.717Z,21.44
2017-11-10T06:53:37.556Z,21.37
2017-11-10T06:56:03.385Z,21.40
2017-11-10T06:58:29.180Z,21.44
2017-11-10T07:00:55.033Z,21.37
2017-11-10T07:03:20.825Z,21.36
2017-11-10T07:05:46.724Z,21.32
2017-11-10T07:08:12.622Z,21.33
2017-11-10T07:10:38.591Z,21.38
2017-11-10T07:13:04.466Z,21.37
2017-11-10T07:18:19.073Z,21.23
2017-11-10T07:20:44.866Z,21.25
2017-11-10T07:23:10.831Z,21.36
2017-11-10T07:25:36.626Z,21.38
2017-11-10T07:28:02.430Z,21.40
2017-11-10T07:30:29.366Z,21.41
2017-11-10T07:32:55.244Z,21.42
2017-11-10T07:35:21.047Z,21.39
2017-11-10T07:37:46.981Z,21.37
2017-11-10T07:40:12.823Z,21.43
2017-11-10T07:42:38.636Z,21.45
2017-11-10T07:45:04.454Z,21.46
2017-11-10T07:47:30.282Z,21.44
2017-11-10T07:49:56.198Z,21.39
2017-11-10T07:52:21.986Z,21.42
2017-11-10T07:54:47.823Z,21.42
2017-11-10T07:57:13.657Z,21.42
2017-11-10T07:59:39.473Z,21.43
2017-11-10T08:02:05.398Z,21.42
2017-11-10T08:04:31.301Z,21.45
2017-11-10T08:06:58.294Z,21.46
2017-11-10T08:09:24.191Z,21.36
2017-11-10T08:11:50.010Z,21.35
2017-11-10T08:14:15.798Z,21.40
2017-11-10T08:16:41.634Z,21.41
2017-11-10T08:19:07.414Z,21.42
2017-11-10T08:21:33.216Z,21.49
2017-11-10T08:23:59.066Z,21.43
2017-11-10T08:26:24.849Z,21.42
2017-11-10T08:28:50.746Z,21.41
2017-11-10T08:31:16.542Z,21.40
2017-11-10T08:33:42.335Z,21.41
2017-11-10T08:36:08.130Z,21.41
2017-11-10T08:38:33.929Z,21.44
2017-11-10T08:40:59.770Z,21.38
2017-11-10T08:43:25.754Z,21.44
2017-11-10T08:45:51.570Z,21.43
2017-11-10T08:48:17.359Z,21.39
2017-11-10T08:50:43.151Z,21.34
2017-11-10T08:53:08.940Z,21.38
2017-11-10T08:55:34.733Z,21.40
2017-11-10T08:58:00.569Z,21.40
2017-11-10T09:00:26.360Z,21.38
2017-11-10T09:02:52.371Z,21.39
2017-11-10T09:05:18.179Z,21.39
2017-11-10T09:07:43.989Z,21.40
2017-11-10T09:10:09.784Z,21.41
2017-11-10T09:12:35.572Z,21.40
2017-11-10T09:15:01.365Z,21.40
2017-11-10T09:17:27.212Z,21.35
2017-11-10T09:20:09.577Z,21.44
2017-11-10T09:22:35.583Z,21.32
2017-11-10T09:25:01.388Z,21.39
2017-11-10T09:27:28.172Z,21.36
2017-11-10T09:29:54.063Z,21.45
2017-11-10T09:32:27.952Z,21.45
2017-11-10T09:34:56.778Z,21.36
2017-11-10T09:37:22.682Z,21.35
2017-11-10T09:39:51.311Z,21.40
2017-11-10T09:42:23.295Z,21.42
2017-11-10T09:44:55.152Z,21.41
2017-11-10T09:50:26.134Z,21.44
2017-11-10T09:55:56.736Z,21.37
2017-11-10T09:58:28.530Z,21.42
2017-11-10T10:00:58.317Z,21.44
2017-11-10T10:03:31.035Z,21.44
2017-11-10T10:05:56.849Z,21.46
2017-11-10T10:11:29.899Z,21.44
2017-11-10T10:14:01.806Z,21.46
2017-11-10T10:16:33.534Z,21.44
2017-11-10T10:19:03.281Z,21.43
2017-11-10T10:21:35.265Z,21.44
2017-11-10T10:24:01.152Z,21.43
2017-11-10T10:26:28.851Z,21.46
2017-11-10T10:28:54.788Z,21.44
2017-11-10T10:31:20.613Z,21.49
2017-11-10T10:33:46.413Z,21.49
2017-11-10T10:36:12.282Z,21.47
2017-11-10T10:38:38.078Z,21.54
2017-11-10T10:41:03.878Z,21.46
2017-11-10T10:43:29.682Z,21.46
2017-11-10T10:45:55.482Z,21.50
2017-11-10T10:48:21.284Z,21.50
2017-11-10T10:50:47.101Z,21.49
2017-11-10T10:53:12.923Z,21.43
2017-11-10T10:55:38.803Z,21.46
2017-11-10T10:58:04.777Z,21.42
2017-11-10T11:00:30.757Z,21.49
2017-11-10T11:02:56.581Z,21.50
2017-11-10T11:05:22.376Z,21.48
2017-11-10T11:07:48.166Z,21.47
2017-11-10T11:10:13.953Z,21.47
2017-11-10T11:12:39.739Z,21.46
2017-11-10T11:15:05.543Z,21.48
2017-11-10T11:17:31.433Z,21.44
2017-11-10T11:19:57.238Z,21.44
2017-11-10T11:22:23.030Z,21.41
2017-11-10T11:24:48.823Z,21.45
2017-11-10T11:27:14.762Z,21.51
2017-11-10T11:29:40.687Z,21.48
2017-11-10T11:32:06.472Z,21.50
2017-11-10T11:34:32.261Z,21.50
2017-11-10T11:36:58.046Z,21.51
2017-11-10T11:39:24.172Z,21.55
2017-11-10T11:41:50.026Z,21.56
2017-11-10T11:44:15.817Z,21.49
2017-11-10T11:46:41.617Z,21.52
2017-11-10T11:49:07.567Z,21.54
2017-11-10T11:51:33.360Z,21.55
2017-11-10T11:53:59.150Z,21.59
2017-11-10T11:56:24.954Z,21.52
2017-11-10T11:58:50.744Z,21.51
2017-11-10T12:01:16.583Z,21.57
2017-11-10T12:03:42.389Z,21.58
2017-11-10T12:06:08.182Z,21.55
2017-11-10T12:08:33.978Z,21.56
2017-11-10T12:10:59.802Z,21.54
2017-11-10T12:13:25.590Z,21.55
2017-11-10T12:15:51.425Z,21.53
2017-11-10T12:18:17.221Z,21.50
2017-11-10T12:20:43.084Z,21.56
2017-11-10T12:23:08.963Z,21.51
2017-11-10T12:25:34.965Z,21.54
2017-11-10T12:28:00.833Z,21.55
2017-11-10T12:30:26.638Z,21.50
2017-11-10T12:32:52.430Z,21.53
2017-11-10T12:35:18.286Z,21.48
2017-11-10T12:37:44.076Z,21.51
2017-11-10T12:40:09.902Z,21.53
2017-11-10T12:42:35.794Z,21.59
2017-11-10T12:45:01.618Z,21.57
2017-11-10T12:47:27.417Z,21.53
2017-11-10T12:49:53.215Z,21.52
2017-11-10T12:52:19.175Z,21.54
2017-11-10T12:54:44.979Z,21.57
2017-11-10T12:57:10.781Z,21.63
2017-11-10T12:59:36.658Z,21.56
2017-11-10T13:02:02.562Z,21.53
2017-11-10T13:04:28.343Z,21.57
2017-11-10T13:06:54.158Z,21.52
2017-11-10T13:09:19.950Z,21.54
2017-11-10T13:11:45.886Z,21.56
2017-11-10T13:14:11.781Z,21.55
2017-11-10T13:16:37.618Z,21.58
2017-11-10T13:19:03.424Z,21.53
2017-11-10T13:21:29.267Z,21.56
2017-11-10T13:23:55.074Z,21.54
2017-11-10T13:26:20.885Z,21.53
2017-11-10T13:28:46.695Z,21.55
2017-11-10T13:31:12.532Z,21.52
2017-11-10T13:33:38.351Z,21.58
2017-11-10T13:36:04.143Z,21.51
2017-11-10T13:38:29.942Z,21.57
2017-11-10T13:40:55.738Z,21.51
2017-11-10T13:43:21.538Z,21.55
2017-11-10T13:45:47.334Z,21.51
2017-11-10T13:48:13.186Z,21.59
2017-11-10T13:50:38.975Z,21.52
2017-11-10T13:53:04.781Z,21.51
2017-11-10T13:55:30.584Z,21.51
2017-11-10T13:57:56.521Z,21.46
2017-11-10T14:00:22.357Z,21.51
2017-11-10T14:02:48.152Z,21.55
2017-11-10T14:05:14.075Z,21.55
2017-11-10T14:07:39.889Z,21.47
2017-11-10T14:10:05.854Z,21.55
2017-11-10T14:12:31.678Z,21.56
2017-11-10T14:14:57.577Z,21.53
2017-11-10T14:17:23.384Z,21.56
2017-11-10T14:19:49.166Z,21.51
2017-11-10T14:22:14.961Z,21.52
2017-11-10T14:24:40.744Z,21.55
2017-11-10T14:27:06.582Z,21.49
2017-11-10T14:29:32.375Z,21.48
2017-11-10T14:31:58.174Z,21.57
2017-11-10T14:34:23.965Z,21.51
2017-11-10T14:36:49.764Z,21.46
2017-11-10T14:39:15.545Z,21.53
2017-11-10T14:41:41.334Z,21.51
2017-11-10T14:44:07.181Z,21.55
2017-11-10T14:46:32.970Z,21.51
2017-11-10T14:48:58.757Z,21.50
2017-11-10T14:51:24.554Z,21.53
2017-11-10T14:53:50.353Z,21.48
2017-11-10T14:56:16.141Z,21.52
2017-11-10T14:58:41.983Z,21.48
2017-11-10T15:01:07.777Z,21.55
2017-11-10T15:03:33.561Z,21.55
2017-11-10T15:05:59.369Z,21.53
2017-11-10T15:08:25.150Z,21.52
2017-11-10T15:10:50.961Z,21.52
2017-11-10T15:13:16.764Z,21.52
2017-11-10T15:15:42.557Z,21.48
2017-11-10T15:18:12.127Z,21.53
2017-11-10T15:20:37.972Z,21.57
2017-11-10T15:23:03.764Z,21.57
2017-11-10T15:25:29.552Z,21.55
2017-11-10T15:27:55.342Z,21.56
2017-11-10T15:30:21.154Z,21.60
2017-11-10T15:32:46.928Z,21.59
2017-11-10T15:35:12.769Z,21.61
2017-11-10T15:37:38.562Z,21.61
2017-11-10T15:40:04.341Z,21.60
2017-11-10T15:42:30.144Z,21.54
2017-11-10T15:44:55.945Z,21.62
2017-11-10T15:47:21.786Z,21.56
2017-11-10T15:49:47.593Z,21.51
2017-11-10T15:52:13.394Z,21.54
2017-11-10T15:54:39.221Z,21.56
2017-11-10T15:57:05.026Z,21.55
2017-11-10T15:59:30.846Z,21.56
2017-11-10T16:01:56.658Z,21.58
2017-11-10T16:04:22.502Z,21.52
2017-11-10T16:06:48.283Z,21.57
2017-11-10T16:09:14.113Z,21.53
2017-11-10T16:11:39.905Z,21.50
2017-11-10T16:14:05.699Z,21.50
2017-11-10T16:16:31.488Z,21.49
2017-11-10T16:18:57.285Z,21.54
2017-11-10T16:21:23.070Z,21.54
2017-11-10T16:23:48.876Z,21.59
2017-11-10T16:26:14.701Z,21.57
2017-11-10T16:28:40.487Z,21.52
2017-11-10T16:31:06.318Z,21.47
2017-11-10T16:33:32.113Z,21.55
2017-11-10T16:35:57.942Z,21.50
2017-11-10T16:38:23.726Z,21.48
2017-11-10T16:40:49.561Z,21.55
2017-11-10T16:43:15.336Z,21.51
2017-11-10T16:45:41.105Z,21.54
2017-11-10T16:48:06.901Z,21.49
2017-11-10T16:50:32.692Z,21.48
2017-11-10T16:52:58.516Z,21.48
2017-11-10T16:55:24.297Z,21.55
2017-11-10T16:57:50.278Z,21.46
2017-11-10T17:00:17.888Z,21.50
2017-11-10T17:02:43.819Z,21.50
2017-11-10T17:05:09.630Z,21.50
2017-11-10T17:07:35.413Z,21.49
2017-11-10T17:10:01.205Z,21.51
2017-11-10T17:12:27.123Z,21.53
2017-11-10T17:14:52.937Z,21.57
2017-11-10T17:17:18.722Z,21.53
2017-11-10T17:19:44.521Z,21.59
2017-11-10T17:22:10.306Z,21.55
2017-11-10T17:24:36.126Z,21.59
2017-11-10T17:27:01.930Z,21.58
2017-11-10T17:29:27.710Z,21.58
2017-11-10T17:31:53.514Z,21.55
2017-11-10T17:34:19.301Z,21.59
2017-11-10T17:36:45.092Z,21.58
2017-11-10T17:39:10.922Z,21.62
2017-11-10T17:41:36.706Z,21.66
2017-11-10T17:44:02.515Z,21.65
2017-11-10T17:46:28.314Z,21.53
2017-11-10T17:48:54.123Z,21.56
2017-11-10T17:51:20.037Z,21.53
2017-11-10T17:53:45.840Z,21.64
2017-11-10T17:56:11.631Z,21.58
2017-11-10T17:58:37.460Z,21.61
2017-11-10T18:01:03.331Z,21.66
2017-11-10T18:03:29.125Z,21.66
2017-11-10T18:05:54.974Z,21.65
2017-11-10T18:08:20.778Z,21.57
2017-11-10T18:10:46.654Z,21.60
2017-11-10T18:13:12.475Z,21.59
2017-11-10T18:15:38.327Z,21.54
2017-11-10T18:18:04.127Z,21.55
2017-11-10T18:20:29.913Z,21.57
2017-11-10T18:22:55.715Z,21.62
2017-11-10T18:25:21.502Z,21.64
2017-11-10T18:27:47.340Z,21.61
2017-11-10T18:30:13.129Z,21.63
2017-11-10T18:32:39.057Z,21.63
2017-11-10T18:35:04.866Z,21.68
2017-11-10T18:37:30.822Z,21.65
2017-11-10T18:39:56.654Z,21.61
2017-11-10T18:42:22.546Z,21.62
2017-11-10T18:44:48.340Z,21.69
2017-11-10T18:47:14.211Z,21.70
2017-11-10T18:49:40.102Z,21.65
2017-11-10T18:52:05.912Z,21.64
2017-11-10T18:54:32.591Z,21.68
2017-11-10T18:56:58.576Z,21.60
2017-11-10T18:59:24.371Z,21.60
2017-11-10T19:01:50.166Z,21.60
2017-11-10T19:04:15.968Z,21.49
2017-11-10T19:06:41.759Z,21.63
2017-11-10T19:09:07.587Z,21.60
2017-11-10T19:11:33.502Z,21.61
2017-11-10T19:13:59.314Z,21.62
2017-11-10T19:16:25.246Z,21.59
2017-11-10T19:18:51.070Z,21.57
2017-11-10T19:21:16.868Z,21.66
2017-11-10T19:23:42.674Z,21.67
2017-11-10T19:26:08.465Z,21.59
2017-11-10T19:28:34.276Z,21.64
2017-11-10T19:31:00.091Z,21.67
2017-11-10T19:33:25.909Z,21.57
2017-11-10T19:35:51.707Z,21.59
2017-11-10T19:38:17.508Z,21.68
2017-11-10T19:40:43.379Z,21.74
2017-11-10T19:43:09.212Z,21.78
2017-11-10T19:45:35.012Z,21.73
2017-11-10T19:48:00.806Z,21.73
2017-11-10T19:50:26.651Z,21.72
2017-11-10T19:52:52.476Z,21.64
2017-11-10T19:55:20.331Z,21.64
2017-11-10T19:57:46.134Z,21.68
2017-11-10T20:00:11.940Z,21.68
2017-11-10T20:02:37.779Z,21.70
2017-11-10T20:05:03.589Z,21.76
2017-11-10T20:07:29.401Z,21.75
2017-11-10T20:09:55.196Z,21.70
2017-11-10T20:12:21.037Z,21.57
2017-11-10T20:14:47.073Z,21.65
2017-11-10T20:17:12.927Z,21.65
2017-11-10T20:19:38.735Z,21.55
2017-11-10T20:22:04.543Z,21.60
2017-11-10T20:24:30.342Z,21.62
2017-11-10T20:26:56.178Z,21.60
2017-11-10T20:29:22.377Z,21.60
2017-11-10T20:31:48.182Z,21.56
2017-11-10T20:34:13.976Z,21.61
2017-11-10T20:36:39.770Z,21.63
2017-11-10T20:39:05.794Z,21.58
2017-11-10T20:41:31.598Z,21.57
2017-11-10T20:43:57.460Z,21.54
2017-11-10T20:46:23.267Z,21.57
2017-11-10T20:48:49.195Z,21.49
2017-11-10T20:51:15.086Z,21.43
2017-11-10T20:53:41.029Z,21.55
2017-11-10T20:56:06.886Z,21.57
2017-11-10T20:58:32.709Z,21.60
2017-11-10T21:00:58.518Z,21.53
2017-11-10T21:03:24.424Z,21.56
2017-11-10T21:05:50.242Z,21.56
2017-11-10T21:08:16.080Z,21.53
2017-11-10T21:10:41.926Z,21.48
2017-11-10T21:13:07.877Z,21.48
2017-11-10T21:15:33.769Z,21.48
2017-11-10T21:17:59.586Z,21.51
2017-11-10T21:20:25.407Z,21.41
2017-11-10T21:22:51.264Z,21.43
2017-11-10T21:25:17.068Z,21.40
2017-11-10T21:27:42.962Z,21.48
2017-11-10T21:30:09.167Z,21.48
2017-11-10T21:32:34.973Z,21.45
2017-11-10T21:35:00.782Z,21.43
2017-11-10T21:37:26.592Z,21.49
2017-11-10T21:39:52.433Z,21.47
2017-11-10T21:42:18.249Z,21.59
2017-11-10T21:44:44.094Z,21.52
2017-11-10T21:47:09.905Z,21.54
2017-11-10T21:49:36.551Z,21.50
2017-11-10T21:52:02.363Z,21.42
2017-11-10T21:54:28.217Z,21.35
2017-11-10T21:56:54.033Z,21.43
2017-11-10T21:59:19.844Z,21.47
2017-11-10T22:01:45.651Z,21.50
2017-11-10T22:04:11.446Z,21.52
2017-11-10T22:06:37.254Z,21.48
2017-11-10T22:09:03.066Z,21.46
2017-11-10T22:11:28.863Z,21.55
2017-11-10T22:13:54.716Z,21.52
2017-11-10T22:16:20.529Z,21.53
2017-11-10T22:18:46.366Z,21.59
2017-11-10T22:21:12.168Z,21.58
2017-11-10T22:23:38.015Z,21.60
2017-11-10T22:26:03.810Z,21.56
2017-11-10T22:28:29.616Z,21.47
2017-11-10T22:30:55.454Z,21.56
2017-11-10T22:33:21.261Z,21.54
2017-11-10T22:35:47.063Z,21.48
2017-11-10T22:38:12.858Z,21.55
2017-11-10T22:40:38.676Z,21.53
2017-11-10T22:43:04.486Z,21.59
2017-11-10T22:45:30.290Z,21.58
2017-11-10T22:47:56.098Z,21.45
2017-11-10T22:50:21.922Z,21.46
2017-11-10T22:52:47.762Z,21.48
2017-11-10T22:55:13.565Z,21.51
2017-11-10T22:57:39.357Z,21.50
2017-11-10T23:00:05.168Z,21.48
2017-11-10T23:02:31.008Z,21.46
2017-11-10T23:04:56.826Z,21.54
2017-11-10T23:07:23.592Z,21.35
2017-11-10T23:09:49.422Z,21.45
2017-11-10T23:12:15.241Z,21.54
2017-11-10T23:14:41.045Z,21.55
2017-11-10T23:17:06.843Z,21.54
2017-11-10T23:19:32.702Z,21.52
2017-11-10T23:21:58.522Z,21.49
2017-11-10T23:24:24.334Z,21.42
2017-11-10T23:26:50.182Z,21.45
2017-11-10T23:29:15.979Z,21.37
2017-11-10T23:31:41.773Z,21.34
2017-11-10T23:34:07.683Z,21.46
2017-11-10T23:36:33.496Z,21.46
2017-11-10T23:38:59.291Z,21.48
2017-11-10T23:41:25.089Z,21.45
2017-11-10T23:43:50.894Z,21.49
2017-11-10T23:46:16.689Z,21.50
2017-11-10T23:48:42.527Z,21.46
2017-11-10T23:51:08.334Z,21.52
2017-11-10T23:53:34.157Z,21.49
2017-11-10T23:55:59.963Z,21.48
2017-11-10T23:58:25.753Z,21.56
